Time;durP1;ratioP1;P1;durP2;ratioP2;P2;SDS_P1;SDS_P2;PMS_P1;PMS_P2;Temp;Humidity;BMP_temperature;BMP_pressure;BME280_temperature;BME280_humidity;BME280_pressure;Samples;Min_cycle;Max_cycle;Signal;HPM_P1;HPM_P2
2022/10/20 00:01:30;;;;;;;7.68;2.00;;;;;;;8.16;100.00;101533.97;5191242;28;20021;-72
2022/10/20 00:04:01;;;;;;;6.85;2.17;;;;;;;8.07;100.00;101543.59;5171999;28;20095;-72
2022/10/20 00:06:32;;;;;;;8.05;2.40;;;;;;;8.07;100.00;101539.25;5180463;28;20037;-72
2022/10/20 00:09:03;;;;;;;6.45;2.17;;;;;;;8.08;100.00;101530.56;5182648;28;20029;-72
2022/10/20 00:11:33;;;;;;;4.45;2.15;;;;;;;8.06;100.00;101532.31;5182538;28;20065;-72
2022/10/20 00:14:04;;;;;;;5.25;2.40;;;;;;;8.15;100.00;101521.81;5182773;28;20520;-72
2022/10/20 00:16:36;;;;;;;5.78;2.25;;;;;;;8.14;100.00;101527.91;5182397;28;20092;-72
2022/10/20 00:19:07;;;;;;;8.32;2.70;;;;;;;8.03;100.00;101529.75;5182584;28;20260;-72
2022/10/20 00:21:37;;;;;;;6.32;2.22;;;;;;;7.97;100.00;101522.00;5182137;28;20029;-72
2022/10/20 00:24:07;;;;;;;4.28;2.30;;;;;;;8.01;100.00;101522.84;5170693;28;20041;-72
2022/10/20 00:26:38;;;;;;;8.25;2.35;;;;;;;7.88;100.00;101510.84;5177894;28;20627;-72
2022/10/20 00:29:08;;;;;;;8.00;2.70;;;;;;;7.89;100.00;101503.00;5181288;28;20041;-72
2022/10/20 00:31:38;;;;;;;5.13;2.60;;;;;;;7.87;100.00;101493.50;5186850;28;20391;-72
2022/10/20 00:34:09;;;;;;;7.45;2.80;;;;;;;8.06;100.00;101479.41;5170741;28;20065;-72
2022/10/20 00:36:39;;;;;;;6.00;2.60;;;;;;;8.13;100.00;101473.25;5181460;28;20553;-72
2022/10/20 00:39:10;;;;;;;5.68;2.70;;;;;;;8.14;100.00;101467.16;5182004;28;20038;-72
2022/10/20 00:41:40;;;;;;;6.35;2.70;;;;;;;8.22;100.00;101468.81;5181568;28;20040;-72
2022/10/20 00:44:47;;;;;;;4.88;2.63;;;;;;;8.27;100.00;101464.44;5181392;28;20037;-71
2022/10/20 00:47:32;;;;;;;4.53;2.38;;;;;;;8.30;100.00;101464.41;5181192;28;20124;-72
2022/10/20 00:50:09;;;;;;;6.65;2.47;;;;;;;8.35;100.00;101469.56;5179449;28;20033;-72
2022/10/20 00:52:42;;;;;;;4.78;2.35;;;;;;;8.32;100.00;101459.16;5181378;28;20152;-72
2022/10/20 00:55:18;;;;;;;6.43;2.60;;;;;;;8.34;100.00;101468.69;5181612;28;20076;-72
2022/10/20 00:57:50;;;;;;;;;;;;;;;8.34;100.00;101463.47;5182024;28;20107;-72
2022/10/20 01:00:21;;;;;;;4.13;2.15;;;;;;;8.34;100.00;101455.66;5189641;28;20375;-72
2022/10/20 01:02:55;;;;;;;6.32;2.10;;;;;;;8.35;100.00;101446.97;5188675;28;20117;-72
2022/10/20 01:05:26;;;;;;;5.80;2.60;;;;;;;8.22;100.00;101450.59;5183192;28;20434;-72
2022/10/20 01:07:56;;;;;;;6.10;2.47;;;;;;;8.09;100.00;101441.19;5181217;28;20108;-71
2022/10/20 01:10:34;;;;;;;6.47;2.88;;;;;;;7.86;100.00;101430.16;5181065;28;20037;-72
2022/10/20 01:13:10;;;;;;;5.43;2.65;;;;;;;7.84;100.00;101425.88;5181221;28;20447;-72
2022/10/20 01:15:48;;;;;;;6.95;2.58;;;;;;;7.87;100.00;101429.28;5180639;28;20091;-72
2022/10/20 01:18:18;;;;;;;9.73;2.78;;;;;;;7.93;100.00;101426.63;5180180;28;20037;-72
2022/10/20 01:21:22;;;;;;;4.80;2.60;;;;;;;7.96;100.00;101424.00;5181178;28;20022;-72
2022/10/20 01:24:14;;;;;;;6.97;2.90;;;;;;;7.93;100.00;101405.81;5162048;28;20679;-72
2022/10/20 01:26:57;;;;;;;4.15;1.90;;;;;;;7.98;100.00;101404.00;5180451;28;20026;-72
2022/10/20 01:29:42;;;;;;;4.93;2.30;;;;;;;8.01;100.00;101403.13;5182259;28;20173;-71
2022/10/20 01:32:23;;;;;;;5.47;2.42;;;;;;;8.05;100.00;101405.66;5185328;28;20021;-72
2022/10/20 01:35:22;;;;;;;8.55;2.70;;;;;;;7.99;100.00;101408.34;5185659;28;20488;-71
2022/10/20 01:38:14;;;;;;;6.68;2.70;;;;;;;7.98;100.00;101408.34;5168722;28;20080;-72
2022/10/20 01:43:20;;;;;;;7.43;2.72;;;;;;;7.61;100.00;101402.69;5207687;28;20060;-77
2022/10/20 01:45:52;;;;;;;5.85;3.22;;;;;;;7.52;100.00;101407.97;5202567;28;20064;-77
2022/10/20 01:48:27;;;;;;;6.90;3.47;;;;;;;7.46;100.00;101414.97;5204972;28;20064;-77
2022/10/20 01:51:00;;;;;;;5.07;3.08;;;;;;;7.37;100.00;101405.53;5204715;28;20668;-78
2022/10/20 01:53:30;;;;;;;8.40;3.67;;;;;;;7.34;100.00;101396.91;5209099;28;20045;-77
2022/10/20 01:56:02;;;;;;;8.45;3.90;;;;;;;7.20;100.00;101397.88;5205303;28;20027;-77
2022/10/20 01:58:54;;;;;;;6.43;3.22;;;;;;;7.25;100.00;101402.19;5200165;28;20069;-77
2022/10/20 02:01:32;;;;;;;6.72;3.45;;;;;;;7.24;100.00;101400.47;5180190;28;20116;-77
2022/10/20 02:04:05;;;;;;;9.27;3.88;;;;;;;7.19;100.00;101393.56;5177832;28;20025;-77
2022/10/20 02:06:44;;;;;;;7.30;3.75;;;;;;;7.24;100.00;101389.22;5200443;28;20411;-78
2022/10/20 02:09:24;;;;;;;7.78;3.78;;;;;;;7.13;100.00;101394.47;5200283;28;20037;-77
2022/10/20 02:12:03;;;;;;;7.53;4.20;;;;;;;7.18;100.00;101394.44;5197120;28;20491;-78
2022/10/20 02:14:34;;;;;;;5.82;3.53;;;;;;;7.11;100.00;101390.19;5201428;28;20468;-77
2022/10/20 02:17:13;;;;;;;7.65;3.58;;;;;;;7.02;100.00;101400.66;5185803;28;20017;-77
2022/10/20 02:19:46;;;;;;;7.65;3.70;;;;;;;7.07;100.00;101407.53;5201791;28;20024;-77
2022/10/20 02:22:18;;;;;;;8.07;4.20;;;;;;;7.13;100.00;101393.63;5200209;28;20350;-77
2022/10/20 02:24:50;;;;;;;10.20;4.50;;;;;;;7.01;100.00;101394.59;5196348;28;20028;-77
2022/10/20 02:27:28;;;;;;;10.45;4.47;;;;;;;6.91;100.00;101385.16;5198351;28;20223;-77
2022/10/20 02:30:04;;;;;;;9.93;3.85;;;;;;;6.93;100.00;101383.41;5198287;28;20522;-77
2022/10/20 02:32:37;;;;;;;6.68;3.63;;;;;;;6.91;100.00;101373.91;5184575;28;20033;-77
2022/10/20 02:35:13;;;;;;;10.85;3.80;;;;;;;7.00;100.00;101363.41;5175830;28;20079;-78
2022/10/20 02:37:43;;;;;;;7.30;3.45;;;;;;;7.05;100.00;101364.22;5201763;28;20047;-77
2022/10/20 02:40:14;;;;;;;6.15;3.63;;;;;;;6.93;100.00;101357.41;5200440;28;20037;-78
2022/10/20 02:42:44;;;;;;;7.00;3.53;;;;;;;6.92;100.00;101350.50;5202163;28;20032;-77
2022/10/20 02:45:15;;;;;;;9.68;3.90;;;;;;;7.05;100.00;101366.84;5200673;28;20226;-77
2022/10/20 02:47:45;;;;;;;8.50;3.75;;;;;;;7.03;100.00;101358.19;5201898;28;20033;-78
2022/10/20 02:50:16;;;;;;;10.40;3.60;;;;;;;7.10;100.00;101365.06;5200604;28;20109;-77
2022/10/20 02:52:46;;;;;;;6.03;3.53;;;;;;;7.13;100.00;101357.25;5202828;28;20475;-78
2022/10/20 02:55:16;;;;;;;10.68;3.90;;;;;;;7.09;100.00;101365.97;5202468;28;20106;-77
2022/10/20 02:57:47;;;;;;;7.15;3.78;;;;;;;7.11;100.00;101351.22;5216020;28;20483;-77
2022/10/20 03:00:17;;;;;;;9.25;3.70;;;;;;;7.13;100.00;101352.88;5216372;28;20029;-77
2022/10/20 03:02:47;;;;;;;10.15;3.90;;;;;;;7.11;100.00;101351.22;5211353;28;20542;-78
2022/10/20 03:05:17;;;;;;;6.95;3.33;;;;;;;7.15;100.00;101343.38;5218574;28;20029;-78
2022/10/20 03:07:48;;;;;;;8.15;3.60;;;;;;;7.18;100.00;101348.53;5209706;28;20045;-78
2022/10/20 03:10:18;;;;;;;5.97;3.42;;;;;;;7.22;100.00;101345.88;5215070;28;20032;-77
2022/10/20 03:12:48;;;;;;;6.47;3.58;;;;;;;7.20;100.00;101346.78;5210820;28;20458;-78
2022/10/20 03:15:19;;;;;;;10.38;3.63;;;;;;;7.26;100.00;101330.28;5219046;28;20025;-77
2022/10/20 03:17:49;;;;;;;9.48;3.30;;;;;;;7.21;100.00;101330.31;5215241;28;20121;-77
2022/10/20 03:20:19;;;;;;;8.63;3.53;;;;;;;7.31;100.00;101325.00;5219108;28;20203;-78
2022/10/20 03:22:50;;;;;;;6.50;3.47;;;;;;;7.29;100.00;101320.69;5214790;28;20466;-77
2022/10/20 03:25:20;;;;;;;6.82;3.35;;;;;;;7.27;100.00;101313.78;5218136;28;20398;-78
2022/10/20 03:27:50;;;;;;;5.20;3.30;;;;;;;7.16;100.00;101313.03;5214595;28;20036;-77
2022/10/20 03:30:21;;;;;;;6.85;3.00;;;;;;;7.19;100.00;101303.47;5216275;28;20115;-78
2022/10/20 03:32:51;;;;;;;6.20;3.30;;;;;;;7.31;100.00;101306.78;5212343;28;20265;-77
2022/10/20 03:35:21;;;;;;;6.43;3.45;;;;;;;7.28;100.00;101303.34;5218010;28;20498;-77
2022/10/20 03:37:51;;;;;;;6.25;3.35;;;;;;;7.25;100.00;101299.94;5218705;28;20033;-78
2022/10/20 03:40:22;;;;;;;6.55;3.47;;;;;;;7.21;100.00;101298.22;5215376;28;20525;-77
2022/10/20 03:42:52;;;;;;;7.13;2.72;;;;;;;7.24;100.00;101303.44;5218774;28;20025;-78
2022/10/20 03:45:22;;;;;;;10.50;3.38;;;;;;;7.27;100.00;101293.00;5215336;28;20048;-77
2022/10/20 03:47:52;;;;;;;9.77;3.30;;;;;;;7.24;100.00;101298.22;5218000;28;20104;-77
2022/10/20 03:50:23;;;;;;;5.63;2.90;;;;;;;7.31;100.00;101299.00;5215553;28;20037;-77
2022/10/20 03:52:54;;;;;;;4.45;2.70;;;;;;;7.28;100.00;101302.50;5200224;28;20112;-77
2022/10/20 03:55:24;;;;;;;8.68;3.20;;;;;;;7.25;100.00;101289.56;5215113;28;20036;-77
2022/10/20 03:57:54;;;;;;;6.00;2.80;;;;;;;7.21;100.00;101288.72;5217912;28;20021;-77
2022/10/20 04:00:25;;;;;;;5.63;2.90;;;;;;;7.10;100.00;101287.94;5213629;28;20036;-77
2022/10/20 04:02:55;;;;;;;6.47;2.88;;;;;;;7.06;100.00;101285.41;5191122;28;20064;-78
2022/10/20 04:05:25;;;;;;;6.93;3.33;;;;;;;7.08;100.00;101286.28;5217532;28;20208;-78
2022/10/20 04:07:55;;;;;;;6.32;2.85;;;;;;;7.04;100.00;101281.94;5213163;28;20098;-77
2022/10/20 04:10:26;;;;;;;4.47;2.85;;;;;;;7.03;100.00;101288.03;5212288;28;20095;-77
2022/10/20 04:13:00;;;;;;;5.82;2.90;;;;;;;7.05;100.00;101270.69;5210264;28;20033;-77
2022/10/20 04:15:30;;;;;;;5.93;2.92;;;;;;;7.16;100.00;101266.25;5209075;28;20033;-78
2022/10/20 04:18:01;;;;;;;7.38;2.70;;;;;;;7.19;100.00;101256.69;5212689;28;20025;-77
2022/10/20 04:20:31;;;;;;;5.50;2.60;;;;;;;7.24;100.00;101251.44;5194298;28;20021;-77
2022/10/20 04:23:01;;;;;;;6.68;2.70;;;;;;;7.29;100.00;101242.69;5212198;28;20510;-77
2022/10/20 04:25:31;;;;;;;6.35;2.85;;;;;;;7.27;100.00;101243.59;5213010;28;20120;-78
2022/10/20 04:28:02;;;;;;;5.82;2.83;;;;;;;7.28;100.00;101244.44;5206501;28;20297;-77
2022/10/20 04:30:32;;;;;;;5.57;2.95;;;;;;;7.35;100.00;101242.63;5203752;28;20083;-77
2022/10/20 04:33:02;;;;;;;6.80;2.90;;;;;;;7.46;100.00;101238.13;5204302;28;20068;-77
2022/10/20 04:35:33;;;;;;;4.03;2.50;;;;;;;7.51;100.00;101239.81;5203715;28;20029;-77
2022/10/20 04:38:04;;;;;;;7.32;2.90;;;;;;;7.43;100.00;101241.66;5211717;28;20025;-77
2022/10/20 04:40:34;;;;;;;6.15;2.97;;;;;;;7.47;100.00;101230.34;5213271;28;20017;-77
2022/10/20 04:43:04;;;;;;;5.70;2.70;;;;;;;7.47;100.00;101235.53;5205351;28;20032;-77
2022/10/20 04:45:35;;;;;;;4.70;2.50;;;;;;;7.45;100.00;101234.69;5202737;28;20113;-78
2022/10/20 04:48:06;;;;;;;5.22;2.65;;;;;;;7.53;100.00;101232.00;5212791;28;20017;-77
2022/10/20 04:50:36;;;;;;;6.72;2.60;;;;;;;7.52;100.00;101225.94;5212937;28;20411;-77
2022/10/20 04:53:07;;;;;;;3.58;2.15;;;;;;;7.58;100.00;101219.78;5212860;28;20033;-77
2022/10/20 04:55:38;;;;;;;4.65;2.60;;;;;;;7.58;100.00;101218.06;5213034;28;20096;-77
2022/10/20 04:58:08;;;;;;;5.53;2.20;;;;;;;7.66;100.00;101211.00;5205647;28;20618;-77
2022/10/20 05:00:38;;;;;;;3.83;2.35;;;;;;;7.61;100.00;101204.13;5209741;28;20032;-77
2022/10/20 05:03:08;;;;;;;5.05;2.08;;;;;;;7.69;100.00;101192.75;5212935;28;20119;-77
2022/10/20 05:05:39;;;;;;;5.13;2.20;;;;;;;7.81;100.00;101189.09;5212901;28;20525;-77
2022/10/20 05:08:09;;;;;;;7.43;2.47;;;;;;;7.84;100.00;101192.53;5211169;28;20083;-77
2022/10/20 05:10:39;;;;;;;9.68;2.47;;;;;;;7.81;100.00;101192.56;5213628;28;20032;-77
2022/10/20 05:13:10;;;;;;;4.05;2.40;;;;;;;7.83;100.00;101180.41;5210886;28;20029;-78
2022/10/20 05:15:40;;;;;;;8.70;2.72;;;;;;;7.81;100.00;101174.38;5209610;28;20033;-77
2022/10/20 05:18:10;;;;;;;5.70;2.42;;;;;;;7.74;100.00;101171.88;5211987;28;20033;-77
2022/10/20 05:20:40;;;;;;;7.25;2.42;;;;;;;7.80;100.00;101170.03;5211347;28;20442;-77
2022/10/20 05:23:11;;;;;;;6.72;2.72;;;;;;;7.84;100.00;101169.13;5213667;28;20115;-78
2022/10/20 05:25:41;;;;;;;4.50;2.10;;;;;;;7.80;100.00;101169.16;5211468;28;20099;-75
2022/10/20 05:28:11;;;;;;;4.80;2.58;;;;;;;7.85;100.00;101165.63;5211802;28;20045;-77
2022/10/20 05:30:42;;;;;;;4.65;2.75;;;;;;;7.78;100.00;101171.81;5209780;28;20059;-77
2022/10/20 05:33:12;;;;;;;6.10;2.80;;;;;;;7.81;100.00;101165.69;5212372;28;20394;-77
2022/10/20 05:35:42;;;;;;;7.88;2.80;;;;;;;7.80;100.00;101169.16;5213347;28;20029;-77
2022/10/20 05:38:13;;;;;;;6.32;2.83;;;;;;;7.82;100.00;101163.06;5210046;28;20064;-77
2022/10/20 05:40:43;;;;;;;5.88;2.90;;;;;;;7.80;100.00;101156.16;5208683;28;20017;-78
2022/10/20 05:43:13;;;;;;;4.95;2.80;;;;;;;7.82;100.00;101160.47;5210747;28;20036;-77
2022/10/20 05:45:44;;;;;;;5.68;3.25;;;;;;;7.76;100.00;101159.69;5207457;28;20033;-77
2022/10/20 05:48:14;;;;;;;6.22;3.50;;;;;;;7.74;100.00;101164.91;5204658;28;20036;-76
2022/10/20 05:50:44;;;;;;;7.90;3.15;;;;;;;7.70;100.00;101160.66;5189585;28;20116;-78
2022/10/20 05:53:14;;;;;;;6.50;3.38;;;;;;;7.67;100.00;101163.28;5209108;28;20409;-78
2022/10/20 05:55:45;;;;;;;5.20;3.08;;;;;;;7.69;100.00;101166.72;5208662;28;20029;-78
2022/10/20 05:58:15;;;;;;;5.70;3.47;;;;;;;7.67;100.00;101165.06;5211908;28;20024;-78
2022/10/20 06:00:51;;;;;;;6.45;3.75;;;;;;;7.68;100.00;101157.22;5210161;28;20034;-78
2022/10/20 06:03:21;;;;;;;7.97;3.65;;;;;;;7.74;100.00;101162.31;5180990;28;20033;-78
2022/10/20 06:05:56;;;;;;;7.95;3.80;;;;;;;7.73;100.00;101168.41;5210242;28;20033;-78
2022/10/20 06:08:31;;;;;;;7.85;3.78;;;;;;;7.76;100.00;101168.38;5211684;28;20036;-77
2022/10/20 06:11:06;;;;;;;6.45;4.03;;;;;;;7.84;100.00;101166.50;5207927;28;20033;-78
2022/10/20 06:13:37;;;;;;;6.35;3.97;;;;;;;7.80;100.00;101162.25;5205182;28;20116;-77
2022/10/20 06:16:16;;;;;;;6.95;4.00;;;;;;;7.89;100.00;101156.03;5211804;28;20495;-77
2022/10/20 06:18:46;;;;;;;6.53;3.97;;;;;;;7.82;100.00;101147.47;5177752;28;20297;-78
2022/10/20 06:21:19;;;;;;;6.47;4.05;;;;;;;7.88;100.00;101149.97;5199632;28;20032;-78
2022/10/20 06:23:50;;;;;;;8.73;4.50;;;;;;;7.93;100.00;101148.16;5206371;28;20183;-77
2022/10/20 06:26:23;;;;;;;7.03;4.07;;;;;;;7.94;100.00;101142.06;5200512;28;20123;-78
2022/10/20 06:28:55;;;;;;;6.13;4.15;;;;;;;8.06;100.00;101144.47;5199090;28;20045;-78
2022/10/20 06:31:28;;;;;;;7.30;3.90;;;;;;;8.11;100.00;101144.38;5194620;28;20037;-77
2022/10/20 06:33:59;;;;;;;7.15;4.20;;;;;;;8.23;99.81;101147.66;5200066;28;20487;-76
2022/10/20 06:36:29;;;;;;;8.80;3.92;;;;;;;8.25;99.76;101143.28;5209001;28;20075;-77
2022/10/20 06:39:00;;;;;;;7.15;3.85;;;;;;;8.30;100.00;101146.72;5206815;28;20025;-78
2022/10/20 06:41:31;;;;;;;6.75;4.03;;;;;;;8.31;99.78;101135.41;5192056;28;20439;-78
2022/10/20 06:44:02;;;;;;;7.85;3.83;;;;;;;8.29;99.97;101134.56;5208753;28;20033;-77
2022/10/20 06:46:35;;;;;;;7.38;3.97;;;;;;;8.38;99.99;101144.81;5209585;28;20040;-78
2022/10/20 06:49:06;;;;;;;8.63;4.30;;;;;;;8.48;99.64;101148.97;5211000;28;20483;-77
2022/10/20 06:51:37;;;;;;;7.32;4.63;;;;;;;8.41;99.11;101157.78;5209866;28;20453;-78
2022/10/20 06:54:08;;;;;;;8.13;4.65;;;;;;;8.58;99.47;101145.31;5211080;28;20040;-77
2022/10/20 06:56:39;;;;;;;8.68;4.18;;;;;;;8.49;100.00;101132.47;5208842;28;20209;-77
2022/10/20 06:59:09;;;;;;;9.90;5.00;;;;;;;8.43;100.00;101137.81;5210820;28;20640;-78
2022/10/20 07:01:40;;;;;;;8.50;4.55;;;;;;;8.40;100.00;101150.84;5209009;28;20300;-78
2022/10/20 07:04:14;;;;;;;8.98;4.53;;;;;;;8.53;100.00;101141.09;5210935;28;20614;-77
2022/10/20 07:06:45;;;;;;;10.02;4.80;;;;;;;8.60;100.00;101147.91;5211353;28;20060;-78
2022/10/20 07:09:17;;;;;;;6.68;4.40;;;;;;;8.56;100.00;101147.09;5208040;28;20065;-77
2022/10/20 07:11:51;;;;;;;9.10;4.53;;;;;;;8.55;100.00;101154.94;5209684;28;20497;-77
2022/10/20 07:14:22;;;;;;;6.70;4.13;;;;;;;8.41;100.00;101152.56;5197522;28;20040;-76
2022/10/20 07:16:52;;;;;;;7.57;4.22;;;;;;;8.40;100.00;101152.63;5207530;28;20029;-76
2022/10/20 07:19:23;;;;;;;8.75;4.50;;;;;;;8.54;100.00;101148.88;5186487;28;20095;-78
2022/10/20 07:21:53;;;;;;;9.00;4.50;;;;;;;8.44;100.00;101144.72;5210333;28;20112;-77
2022/10/20 07:24:23;;;;;;;11.45;4.35;;;;;;;8.56;100.00;101160.09;5207309;28;20029;-77
2022/10/20 07:26:54;;;;;;;6.95;4.32;;;;;;;8.77;100.00;101144.09;5207823;28;20059;-77
2022/10/20 07:29:24;;;;;;;7.90;3.70;;;;;;;8.71;100.00;101153.78;5211493;28;20489;-78
2022/10/20 07:31:54;;;;;;;8.63;4.20;;;;;;;8.72;100.00;101151.13;5206812;28;20036;-77
2022/10/20 07:34:24;;;;;;;8.10;4.63;;;;;;;8.81;100.00;101150.97;5203705;28;20451;-78
2022/10/20 07:36:55;;;;;;;6.10;4.10;;;;;;;8.89;100.00;101148.22;5207560;28;20140;-77
2022/10/20 07:39:26;;;;;;;7.53;4.05;;;;;;;9.19;99.23;101148.44;5204019;28;20120;-76
2022/10/20 07:41:56;;;;;;;6.90;4.18;;;;;;;9.29;96.97;101142.16;5234429;23;20064;-72
2022/10/20 07:44:26;;;;;;;6.20;3.80;;;;;;;9.99;94.00;101139.66;5221147;28;20029;-72
2022/10/20 07:46:57;;;;;;;5.55;3.67;;;;;;;10.43;92.55;101131.59;5222099;28;20025;-72
2022/10/20 07:49:27;;;;;;;7.93;3.55;;;;;;;10.63;91.73;101124.94;5223869;28;20108;-72
2022/10/20 07:51:57;;;;;;;6.43;3.60;;;;;;;11.40;87.77;101118.31;5224273;28;20037;-73
2022/10/20 07:54:28;;;;;;;7.60;3.22;;;;;;;11.36;85.35;101116.69;5223951;28;20494;-72
2022/10/20 07:56:58;;;;;;;6.68;3.13;;;;;;;11.49;85.96;101113.69;5223831;28;20055;-72
2022/10/20 07:59:28;;;;;;;5.25;3.08;;;;;;;11.40;85.51;101111.34;5223731;28;20033;-72
2022/10/20 08:01:59;;;;;;;5.13;3.33;;;;;;;11.03;86.30;101094.16;5223504;28;20494;-72
2022/10/20 08:04:30;;;;;;;5.93;3.30;;;;;;;11.37;85.02;101095.72;5223152;28;20116;-72
2022/10/20 08:07:00;;;;;;;6.25;3.28;;;;;;;11.75;83.28;101081.47;5223469;28;20044;-72
2022/10/20 08:09:30;;;;;;;5.63;2.88;;;;;;;12.63;81.16;101075.75;5223354;28;20491;-72
2022/10/20 08:12:02;;;;;;;6.22;2.97;;;;;;;12.23;80.71;101091.19;5223639;28;20486;-72
2022/10/20 08:14:34;;;;;;;7.38;3.22;;;;;;;12.54;80.76;101070.88;5205269;28;20027;-73
2022/10/20 08:17:05;;;;;;;5.80;3.40;;;;;;;12.49;80.04;101062.28;5222836;28;20055;-72
2022/10/20 08:19:35;;;;;;;7.22;2.90;;;;;;;12.94;79.64;101058.03;5223439;28;20418;-72
2022/10/20 08:22:05;;;;;;;7.18;3.05;;;;;;;12.80;79.45;101056.81;5223713;28;20024;-72
2022/10/20 08:24:36;;;;;;;6.43;3.25;;;;;;;13.57;77.19;101043.25;5223749;28;20057;-73
2022/10/20 08:27:06;;;;;;;12.30;2.95;;;;;;;13.41;78.10;101041.31;5223649;28;20029;-72
2022/10/20 08:29:37;;;;;;;5.47;3.10;;;;;;;13.58;78.62;101036.25;5205556;28;20035;-72
2022/10/20 08:32:07;;;;;;;7.95;3.25;;;;;;;13.57;77.42;101034.53;5222937;28;20029;-73
2022/10/20 08:34:37;;;;;;;4.07;2.95;;;;;;;13.82;75.09;101029.97;5223289;28;20025;-72
2022/10/20 08:37:08;;;;;;;6.22;2.95;;;;;;;13.42;76.17;101024.66;5223422;28;20390;-72
2022/10/20 08:39:38;;;;;;;4.47;2.92;;;;;;;13.15;79.82;101029.22;5223332;28;20112;-72
2022/10/20 08:42:09;;;;;;;5.10;2.78;;;;;;;13.26;78.14;101020.91;5222667;28;20474;-72
2022/10/20 08:44:44;;;;;;;6.15;2.92;;;;;;;12.85;78.91;101024.22;5221355;28;20410;-72
2022/10/20 08:47:31;;;;;;;5.90;3.00;;;;;;;12.56;79.81;101026.22;5221999;28;20471;-72
2022/10/20 08:50:03;;;;;;;5.22;3.40;;;;;;;12.21;83.97;101018.75;5222690;28;20386;-72
2022/10/20 08:52:34;;;;;;;9.63;3.63;;;;;;;11.93;84.49;101024.09;5221252;28;20072;-72
2022/10/20 08:55:06;;;;;;;8.13;3.63;;;;;;;11.94;84.22;101019.72;5223010;28;20071;-72
2022/10/20 08:57:36;;;;;;;8.77;4.20;;;;;;;11.79;85.27;101023.69;5222349;28;20353;-72
2022/10/20 09:00:14;;;;;;;12.60;3.88;;;;;;;11.70;87.77;101018.78;5223326;28;20017;-72
2022/10/20 09:02:47;;;;;;;9.63;3.78;;;;;;;11.34;87.32;101030.41;5222165;28;20390;-72
2022/10/20 09:05:25;;;;;;;7.45;3.90;;;;;;;11.42;87.90;101031.00;5222249;28;20029;-72
2022/10/20 09:07:56;;;;;;;9.02;4.00;;;;;;;11.42;87.33;101033.63;5218902;28;20037;-72
2022/10/20 09:10:26;;;;;;;6.45;4.05;;;;;;;11.33;87.38;101026.09;5222434;28;20048;-71
2022/10/20 09:12:57;;;;;;;7.72;4.90;;;;;;;11.20;89.23;101022.13;5201049;28;20470;-72
2022/10/20 09:15:28;;;;;;;5.97;4.30;;;;;;;11.20;89.09;101026.47;5222000;28;20179;-71
2022/10/20 09:18:05;;;;;;;7.97;4.07;;;;;;;11.05;90.32;101022.59;5221775;28;20108;-71
2022/10/20 09:20:43;;;;;;;9.55;4.32;;;;;;;10.76;91.06;101026.09;5204214;28;20090;-72
2022/10/20 09:23:19;;;;;;;8.80;4.20;;;;;;;10.66;91.53;101024.69;5222293;28;20028;-71
2022/10/20 09:25:51;;;;;;;8.68;4.70;;;;;;;10.54;92.60;101012.78;5217049;28;20037;-72
2022/10/20 09:28:25;;;;;;;11.30;4.68;;;;;;;10.51;92.40;101005.03;5221117;28;20127;-71
2022/10/20 09:30:56;;;;;;;9.57;4.60;;;;;;;10.67;93.03;100997.63;5221717;28;20036;-72
2022/10/20 09:33:30;;;;;;;7.88;4.88;;;;;;;10.82;92.81;101005.03;5221221;28;20104;-71
2022/10/20 09:36:12;;;;;;;7.18;4.93;;;;;;;10.75;92.90;101012.19;5221791;28;20025;-71
2022/10/20 09:38:48;;;;;;;7.25;4.72;;;;;;;10.94;91.81;100996.78;5221086;28;20359;-71
2022/10/20 09:41:24;;;;;;;7.57;4.65;;;;;;;11.18;92.14;100984.69;5219672;28;20094;-73
2022/10/20 09:44:06;;;;;;;8.00;5.03;;;;;;;11.18;92.53;100984.69;5218748;28;20029;-73
2022/10/20 09:46:47;;;;;;;8.15;5.03;;;;;;;11.45;91.63;100985.56;5218859;28;20112;-72
2022/10/20 09:49:29;;;;;;;7.20;4.35;;;;;;;11.24;92.48;100981.88;5218486;28;20107;-73
2022/10/20 09:52:01;;;;;;;6.72;4.18;;;;;;;11.40;91.66;100980.47;5218744;28;20021;-73
2022/10/20 09:54:31;;;;;;;8.65;4.88;;;;;;;11.34;92.48;100980.69;5221278;28;20397;-73
2022/10/20 09:57:06;;;;;;;8.50;4.60;;;;;;;11.41;92.37;100984.81;5220560;28;20191;-73
2022/10/20 09:59:39;;;;;;;6.72;4.43;;;;;;;11.65;92.08;100976.16;5219522;28;20226;-73
2022/10/20 10:02:15;;;;;;;6.57;4.40;;;;;;;11.88;91.81;100972.78;5201275;28;20523;-73
2022/10/20 10:04:48;;;;;;;5.63;4.15;;;;;;;11.74;89.47;100986.34;5201549;28;20268;-73
2022/10/20 10:07:25;;;;;;;7.38;4.75;;;;;;;11.78;91.19;100977.47;5219677;28;20063;-73
2022/10/20 10:10:01;;;;;;;8.77;4.40;;;;;;;12.07;92.15;100979.94;5220394;28;20032;-73
2022/10/20 10:12:32;;;;;;;9.55;4.43;;;;;;;12.13;89.46;100979.72;5219057;28;20491;-73
2022/10/20 10:15:05;;;;;;;7.85;4.22;;;;;;;12.33;89.35;100979.03;5220526;28;20087;-73
2022/10/20 10:17:39;;;;;;;8.10;4.47;;;;;;;12.14;90.97;100970.94;5202049;28;20510;-73
2022/10/20 10:20:12;;;;;;;17.13;4.50;;;;;;;12.18;90.37;100969.09;5220727;28;20037;-73
2022/10/20 10:22:43;;;;;;;6.10;4.10;;;;;;;12.11;90.53;100964.97;5219481;28;20269;-73
2022/10/20 10:25:18;;;;;;;7.20;4.63;;;;;;;11.92;90.36;100959.53;5220768;28;20386;-73
2022/10/20 10:28:17;;;;;;;6.93;4.47;;;;;;;12.01;90.48;100968.81;5219601;28;20028;-72
2022/10/20 10:30:47;;;;;;;7.45;4.70;;;;;;;11.93;90.68;100956.00;5202226;28;20024;-73
2022/10/20 10:33:28;;;;;;;9.48;4.75;;;;;;;12.09;90.27;100954.53;5219821;28;20025;-73
2022/10/20 10:36:02;;;;;;;7.90;4.72;;;;;;;11.92;90.16;100954.28;5217313;28;20040;-71
2022/10/20 10:38:33;;;;;;;7.63;4.32;;;;;;;11.81;90.85;100955.56;5220098;28;20470;-72
2022/10/20 10:41:27;;;;;;;8.25;4.65;;;;;;;11.85;90.88;100950.19;5220193;28;20166;-72
2022/10/20 10:44:21;;;;;;;10.38;4.60;;;;;;;11.76;91.57;100926.09;5220822;28;20498;-73
2022/10/20 10:47:18;;;;;;;6.47;4.10;;;;;;;11.86;91.40;100917.84;5219091;28;20029;-71
2022/10/20 10:50:00;;;;;;;6.50;4.60;;;;;;;11.98;91.64;100912.16;5219560;28;20108;-71
2022/10/20 10:52:56;;;;;;;6.90;4.05;;;;;;;12.08;89.05;100912.66;5219692;28;20033;-71
2022/10/20 10:56:08;;;;;;;7.93;4.35;;;;;;;12.07;88.34;100906.59;5217299;28;20505;-71
2022/10/20 10:59:01;;;;;;;7.53;3.85;;;;;;;12.11;87.66;100897.69;5190699;28;20077;-72
2022/10/20 11:01:43;;;;;;;6.53;3.65;;;;;;;12.34;86.97;100875.88;5217912;28;20429;-71
2022/10/20 11:04:40;;;;;;;5.53;2.65;;;;;;;12.37;85.41;100879.25;5219216;28;20040;-72
2022/10/20 11:07:44;;;;;;;10.25;3.30;;;;;;;12.27;84.05;100887.53;5218443;28;20044;-72
2022/10/20 11:10:47;;;;;;;8.10;3.15;;;;;;;12.32;84.38;100881.19;5219338;28;20040;-72
2022/10/20 11:13:25;;;;;;;7.65;3.15;;;;;;;12.36;84.55;100872.31;5181534;28;20053;-71
2022/10/20 11:16:32;;;;;;;6.93;3.45;;;;;;;12.26;84.11;100865.69;5219949;28;20389;-71
2022/10/20 11:19:28;;;;;;;6.07;3.15;;;;;;;12.31;85.77;100862.91;5222702;28;20025;-73
2022/10/20 11:22:01;;;;;;;6.40;3.30;;;;;;;12.34;85.42;100858.41;5222505;28;20017;-70
2022/10/20 11:24:50;;;;;;;5.78;3.38;;;;;;;12.31;84.53;100855.88;5204488;28;20279;-72
2022/10/20 11:27:28;;;;;;;6.32;3.03;;;;;;;12.15;83.62;100846.88;5201907;28;20217;-71
2022/10/20 11:30:32;;;;;;;4.20;2.80;;;;;;;12.36;83.68;100837.38;5219266;28;20032;-72
2022/10/20 11:33:15;;;;;;;4.47;2.95;;;;;;;12.43;82.31;100816.09;5184352;28;20120;-71
2022/10/20 11:36:03;;;;;;;5.32;2.67;;;;;;;12.68;80.40;100816.84;5219897;28;20064;-72
2022/10/20 11:38:48;;;;;;;5.43;2.80;;;;;;;12.96;80.61;100803.50;5220532;28;20094;-72
2022/10/20 11:41:26;;;;;;;4.90;2.30;;;;;;;13.19;80.13;100796.34;5216177;28;20273;-72
2022/10/20 11:44:13;;;;;;;4.90;2.10;;;;;;;13.22;80.35;100790.97;5222495;28;20394;-71
2022/10/20 11:47:05;;;;;;;5.35;2.30;;;;;;;13.26;78.98;100789.91;5220208;28;20086;-72
2022/10/20 11:49:38;;;;;;;4.43;1.98;;;;;;;13.24;76.18;100783.88;5220973;28;20100;-71
2022/10/20 11:52:30;;;;;;;4.30;1.75;;;;;;;13.52;74.24;100781.75;5224902;28;20029;-70
2022/10/20 11:55:25;;;;;;;2.92;1.58;;;;;;;13.66;74.78;100779.38;5220814;28;20064;-72
2022/10/20 11:58:20;;;;;;;2.50;1.80;;;;;;;13.70;73.27;100776.53;5220220;28;20505;-72
2022/10/20 12:01:12;;;;;;;4.15;1.77;;;;;;;13.93;74.98;100762.38;5219732;28;20035;-71